Time;durP1;ratioP1;P1;durP2;ratioP2;P2;SDS_P1;SDS_P2;PMS_P1;PMS_P2;Temp;Humidity;BMP_temperature;BMP_pressure;BME280_temperature;BME280_humidity;BME280_pressure;Samples;Min_cycle;Max_cycle;Signal;HPM_P1;HPM_P2
2022/09/20 00:02:20;;;;;;;10.40;1.70;;;10.90;99.90;;;;;;4996742;28;20057;-67
2022/09/20 00:04:48;;;;;;;9.70;1.50;;;10.80;99.90;;;;;;4996756;28;20050;-67
2022/09/20 00:07:14;;;;;;;9.50;1.50;;;10.80;99.90;;;;;;4995439;28;20065;-67
2022/09/20 00:09:39;;;;;;;9.87;1.80;;;10.80;99.90;;;;;;4995353;28;20274;-67
2022/09/20 00:12:06;;;;;;;8.33;2.03;;;10.80;99.90;;;;;;4996535;28;20133;-67
2022/09/20 00:14:31;;;;;;;9.80;1.60;;;10.80;99.90;;;;;;4996500;28;20054;-67
2022/09/20 00:16:57;;;;;;;10.40;1.90;;;10.90;99.90;;;;;;4997124;28;20821;-67
2022/09/20 00:19:23;;;;;;;8.13;1.60;;;10.80;99.90;;;;;;4996197;28;20077;-67
2022/09/20 00:21:48;;;;;;;14.63;3.03;;;10.80;99.90;;;;;;4996376;28;20093;-67
2022/09/20 00:24:14;;;;;;;16.97;1.83;;;10.80;99.90;;;;;;4994965;28;20099;-67
2022/09/20 00:26:40;;;;;;;9.83;1.47;;;10.80;99.90;;;;;;4996173;28;20054;-67
2022/09/20 00:29:06;;;;;;;8.83;1.60;;;10.80;99.90;;;;;;4996129;28;20291;-67
2022/09/20 00:31:32;;;;;;;8.53;1.50;;;10.80;99.90;;;;;;4996401;28;20043;-70
2022/09/20 00:36:43;;;;;;;12.00;2.03;;;10.80;99.90;;;;;;4995906;28;20298;-67
2022/09/20 00:39:11;;;;;;;11.60;1.50;;;10.80;99.90;;;;;;4995153;28;20278;-67
2022/09/20 00:41:37;;;;;;;11.23;1.40;;;10.70;99.90;;;;;;4996421;28;20622;-67
2022/09/20 00:44:41;;;;;;;9.43;1.87;;;10.80;99.90;;;;;;4994987;28;20286;-67
2022/09/20 00:47:29;;;;;;;10.83;1.80;;;10.80;99.90;;;;;;4995921;28;20054;-67
2022/09/20 00:50:10;;;;;;;13.10;1.60;;;10.80;99.90;;;;;;4995924;28;20286;-67
2022/09/20 00:52:36;;;;;;;10.07;1.73;;;10.80;99.90;;;;;;4995791;28;20286;-68
2022/09/20 00:55:06;;;;;;;6.30;1.40;;;10.80;99.90;;;;;;4995530;28;20282;-67
2022/09/20 00:57:35;;;;;;;9.77;1.60;;;10.80;99.90;;;;;;4995981;28;20046;-67
2022/09/20 01:00:07;;;;;;;12.07;1.73;;;10.80;99.90;;;;;;4995750;28;20281;-67
2022/09/20 01:02:36;;;;;;;10.30;1.50;;;10.80;99.90;;;;;;4995955;28;20274;-67
2022/09/20 01:05:02;;;;;;;10.40;1.40;;;10.70;99.90;;;;;;4995663;28;20630;-67
2022/09/20 01:07:28;;;;;;;9.67;1.40;;;10.70;99.90;;;;;;4995573;28;20274;-67
2022/09/20 01:09:54;;;;;;;13.13;1.87;;;10.80;99.90;;;;;;4995006;28;20590;-68
2022/09/20 01:12:24;;;;;;;8.70;1.80;;;10.80;99.90;;;;;;4996299;28;20293;-67
2022/09/20 01:14:51;;;;;;;10.27;1.53;;;10.80;99.90;;;;;;4994909;28;20475;-67
2022/09/20 01:17:21;;;;;;;11.10;1.53;;;10.80;99.90;;;;;;4995307;28;20297;-67
2022/09/20 01:20:08;;;;;;;12.03;1.80;;;10.80;99.90;;;;;;4995294;28;20284;-67
2022/09/20 01:22:37;;;;;;;9.83;1.83;;;10.80;99.90;;;;;;4995949;28;20321;-67
2022/09/20 01:25:41;;;;;;;9.07;1.83;;;10.80;99.90;;;;;;4995543;28;20282;-67
2022/09/20 01:28:07;;;;;;;13.90;1.53;;;10.80;99.90;;;;;;4984607;28;20672;-67
2022/09/20 01:30:44;;;;;;;7.83;1.40;;;10.80;99.90;;;;;;4995124;28;20285;-67
2022/09/20 01:33:22;;;;;;;12.70;1.80;;;10.80;99.90;;;;;;4995385;28;20590;-67
2022/09/20 01:35:52;;;;;;;10.90;1.37;;;10.90;99.90;;;;;;4995268;28;20284;-67
2022/09/20 01:38:36;;;;;;;12.43;1.90;;;10.90;99.90;;;;;;4995478;28;20281;-67
2022/09/20 01:41:02;;;;;;;9.67;1.60;;;11.00;99.90;;;;;;4995096;28;20281;-67
2022/09/20 01:43:50;;;;;;;8.23;1.80;;;11.00;99.90;;;;;;4994849;28;20286;-67
2022/09/20 01:46:35;;;;;;;10.37;1.97;;;11.00;99.90;;;;;;4994839;28;20286;-67
2022/09/20 01:49:25;;;;;;;14.00;1.40;;;11.00;99.90;;;;;;4995338;28;20293;-67
2022/09/20 01:52:29;;;;;;;9.30;1.43;;;11.00;99.90;;;;;;4994982;28;20046;-67
2022/09/20 01:55:22;;;;;;;11.67;1.63;;;11.00;99.90;;;;;;4994685;28;20288;-67
2022/09/20 01:58:28;;;;;;;12.10;1.40;;;11.10;99.90;;;;;;4994837;28;20650;-67
2022/09/20 02:01:08;;;;;;;6.78;1.48;;;11.10;99.90;;;;;;4994912;28;20332;-67
2022/09/20 02:03:52;;;;;;;7.43;1.43;;;11.10;99.90;;;;;;4995123;28;20387;-67
2022/09/20 02:06:28;;;;;;;10.30;1.73;;;11.20;99.90;;;;;;4994504;28;20277;-67
2022/09/20 02:09:37;;;;;;;7.80;1.63;;;11.20;99.90;;;;;;4995296;28;20282;-67
2022/09/20 02:12:24;;;;;;;7.13;1.47;;;11.30;99.90;;;;;;4948060;28;20293;-67
2022/09/20 02:15:01;;;;;;;15.43;2.93;;;11.30;99.90;;;;;;4994334;28;20286;-67
2022/09/20 02:17:37;;;;;;;12.10;1.50;;;11.30;99.90;;;;;;4994295;28;20384;-66
2022/09/20 02:20:21;;;;;;;9.17;1.60;;;11.30;99.90;;;;;;4994354;28;20274;-67
2022/09/20 02:23:34;;;;;;;10.80;1.77;;;11.40;99.90;;;;;;4994972;28;20340;-67
2022/09/20 02:26:02;;;;;;;8.30;1.33;;;11.40;99.90;;;;;;4988971;28;20293;-67
2022/09/20 02:29:03;;;;;;;11.13;1.40;;;11.40;99.90;;;;;;4994246;28;20337;-67
2022/09/20 02:32:01;;;;;;;3.53;1.00;;;11.50;99.90;;;;;;4933828;29;20292;-67
2022/09/20 02:34:45;;;;;;;8.83;1.57;;;11.50;99.90;;;;;;4994123;28;20824;-67
2022/09/20 02:37:32;;;;;;;7.57;1.33;;;11.50;99.90;;;;;;4993963;28;20643;-67
2022/09/20 02:40:09;;;;;;;7.77;1.47;;;11.50;99.90;;;;;;4994005;28;20325;-67
2022/09/20 02:42:37;;;;;;;9.00;1.50;;;11.50;99.90;;;;;;4994843;28;20278;-67
2022/09/20 02:45:10;;;;;;;7.63;1.33;;;11.60;99.90;;;;;;4993686;28;20679;-67
2022/09/20 02:47:43;;;;;;;8.13;1.50;;;11.60;99.90;;;;;;4994010;28;20282;-67
2022/09/20 02:50:33;;;;;;;5.00;1.37;;;11.60;99.90;;;;;;4993920;28;20332;-67
2022/09/20 02:53:30;;;;;;;8.60;1.20;;;11.60;99.90;;;;;;4994116;28;20598;-67
2022/09/20 02:56:02;;;;;;;5.85;1.05;;;11.60;99.90;;;;;;4993554;28;20633;-67
2022/09/20 02:58:57;;;;;;;7.47;1.27;;;11.60;99.90;;;;;;4993931;28;20270;-67
2022/09/20 03:01:23;;;;;;;7.22;1.58;;;11.60;99.90;;;;;;4987147;28;20312;-67
2022/09/20 03:04:07;;;;;;;8.67;2.13;;;11.50;99.90;;;;;;4997834;28;20046;-67
2022/09/20 03:06:51;;;;;;;7.40;1.63;;;11.50;99.90;;;;;;4997802;28;20434;-67
2022/09/20 03:09:54;;;;;;;5.73;1.00;;;11.50;99.90;;;;;;4997741;28;20289;-67
2022/09/20 03:12:52;;;;;;;7.30;1.40;;;11.60;99.90;;;;;;4997638;28;20285;-67
2022/09/20 03:16:07;;;;;;;6.07;1.10;;;11.50;99.90;;;;;;4997970;28;20278;-67
2022/09/20 03:18:47;;;;;;;9.52;1.67;;;11.50;99.90;;;;;;4972102;28;20293;-67
2022/09/20 03:21:49;;;;;;;7.33;1.30;;;11.50;99.90;;;;;;4997588;28;20086;-67
2022/09/20 03:24:15;;;;;;;8.53;1.20;;;11.50;99.90;;;;;;4994603;28;20384;-67
2022/09/20 03:27:15;;;;;;;7.93;1.40;;;11.50;99.90;;;;;;4997455;28;20361;-67
2022/09/20 03:30:13;;;;;;;6.37;1.30;;;11.50;99.90;;;;;;4997438;28;20164;-67
2022/09/20 03:32:42;;;;;;;4.80;1.33;;;11.50;99.90;;;;;;4997355;28;20288;-67
2022/09/20 03:35:17;;;;;;;8.13;1.43;;;11.50;99.90;;;;;;4997491;28;20313;-67
2022/09/20 03:38:10;;;;;;;12.35;1.80;;;11.50;99.90;;;;;;4997192;28;20298;-67
2022/09/20 03:41:04;;;;;;;7.23;1.50;;;11.50;99.90;;;;;;4997176;28;20089;-67
2022/09/20 03:43:48;;;;;;;10.00;1.33;;;11.50;99.90;;;;;;4997707;28;20281;-67
2022/09/20 03:46:26;;;;;;;8.60;1.77;;;11.50;99.90;;;;;;4997779;28;20293;-67
2022/09/20 03:49:36;;;;;;;6.87;1.00;;;11.50;99.90;;;;;;4997299;28;20417;-67
2022/09/20 03:52:20;;;;;;;7.93;1.17;;;11.50;99.90;;;;;;4997532;28;20665;-67
2022/09/20 03:55:25;;;;;;;5.27;1.13;;;11.50;99.90;;;;;;4997698;28;20274;-67
2022/09/20 03:58:14;;;;;;;5.80;1.10;;;11.50;99.90;;;;;;4996788;28;20388;-67
2022/09/20 04:00:51;;;;;;;7.70;1.60;;;11.50;99.90;;;;;;4997121;28;20286;-67
2022/09/20 04:03:25;;;;;;;5.87;1.13;;;11.50;99.90;;;;;;4996761;28;20316;-65
2022/09/20 04:06:11;;;;;;;8.97;1.30;;;11.40;99.90;;;;;;4996699;28;20290;-65
2022/09/20 04:08:55;;;;;;;6.73;1.57;;;11.40;99.90;;;;;;4996943;28;20285;-65
2022/09/20 04:11:43;;;;;;;6.17;1.67;;;11.40;99.90;;;;;;4995882;28;20297;-65
2022/09/20 04:14:30;;;;;;;8.87;1.10;;;11.40;99.90;;;;;;4996506;28;20347;-65
2022/09/20 04:17:08;;;;;;;8.87;1.30;;;11.40;99.90;;;;;;4996441;28;20297;-64
2022/09/20 04:19:43;;;;;;;7.10;1.57;;;11.40;99.90;;;;;;4996514;28;20286;-64
2022/09/20 04:22:09;;;;;;;6.80;1.33;;;11.40;99.90;;;;;;4996417;28;20289;-65
2022/09/20 04:24:43;;;;;;;9.67;1.33;;;11.50;99.90;;;;;;4996384;28;20058;-65
2022/09/20 04:27:22;;;;;;;8.57;1.40;;;11.40;99.90;;;;;;4997075;28;20089;-65
2022/09/20 04:29:59;;;;;;;6.80;1.40;;;11.50;99.90;;;;;;4996339;28;20444;-65
2022/09/20 04:32:53;;;;;;;9.77;1.97;;;11.50;99.90;;;;;;4996228;28;20278;-65
2022/09/20 04:38:25;;;;;;;6.80;1.80;;;11.50;99.90;;;;;;4996164;28;20290;-65
2022/09/20 04:41:15;;;;;;;6.83;1.70;;;11.40;99.90;;;;;;4996021;28;20046;-64
2022/09/20 04:44:39;;;;;;;8.50;1.63;;;11.40;99.90;;;;;;4996546;28;20297;-65
2022/09/20 04:47:23;;;;;;;7.47;1.33;;;11.40;99.90;;;;;;4942962;28;20288;-65
2022/09/20 04:50:11;;;;;;;8.07;1.30;;;11.40;99.90;;;;;;4996360;28;20621;-64
2022/09/20 04:52:48;;;;;;;6.40;1.10;;;11.40;99.90;;;;;;4995918;28;20317;-65
2022/09/20 04:55:51;;;;;;;5.77;1.20;;;11.40;99.90;;;;;;4995778;28;20759;-65
2022/09/20 04:58:45;;;;;;;8.47;2.20;;;11.50;99.90;;;;;;4994417;28;20367;-65
2022/09/20 05:01:18;;;;;;;6.93;1.27;;;11.50;99.90;;;;;;4996047;28;20364;-65
2022/09/20 05:04:05;;;;;;;6.07;1.30;;;11.40;99.90;;;;;;4995891;28;20764;-67
2022/09/20 05:06:42;;;;;;;7.20;1.50;;;11.50;99.90;;;;;;4995618;28;20273;-67
2022/09/20 05:09:27;;;;;;;10.83;1.80;;;11.50;99.90;;;;;;4995331;28;20281;-67
2022/09/20 05:11:52;;;;;;;11.27;1.40;;;11.50;99.90;;;;;;4995548;28;20285;-67
2022/09/20 05:14:55;;;;;;;10.37;1.40;;;11.50;99.90;;;;;;4995491;28;20288;-67
2022/09/20 05:17:43;;;;;;;7.37;2.00;;;11.50;99.90;;;;;;4995291;28;20046;-67
2022/09/20 05:20:37;;;;;;;8.80;1.83;;;11.50;99.90;;;;;;4995689;28;20296;-68
2022/09/20 05:23:24;;;;;;;9.37;1.70;;;11.50;99.90;;;;;;4995174;28;20339;-67
2022/09/20 05:26:08;;;;;;;7.87;1.50;;;11.40;99.90;;;;;;4995212;28;20286;-67
2022/09/20 05:28:48;;;;;;;7.07;1.43;;;11.40;99.90;;;;;;4995407;28;20742;-67
2022/09/20 05:31:24;;;;;;;6.13;1.30;;;11.40;99.90;;;;;;4995480;28;20282;-67
2022/09/20 05:34:13;;;;;;;8.10;1.50;;;11.40;99.90;;;;;;4995488;28;20278;-67
2022/09/20 05:36:41;;;;;;;9.37;2.13;;;11.40;99.90;;;;;;4995827;28;20359;-67
2022/09/20 05:39:32;;;;;;;8.80;1.40;;;11.40;99.90;;;;;;4994817;28;20317;-67
2022/09/20 05:42:08;;;;;;;9.67;1.73;;;11.40;99.90;;;;;;4995502;28;20286;-67
2022/09/20 05:44:53;;;;;;;10.60;2.07;;;11.30;99.90;;;;;;4994958;28;20277;-67
2022/09/20 05:47:54;;;;;;;8.45;1.55;;;11.20;99.90;;;;;;4995634;28;20611;-67
2022/09/20 05:50:28;;;;;;;8.10;1.40;;;11.30;99.90;;;;;;4994791;28;20065;-67
2022/09/20 05:53:23;;;;;;;7.10;1.60;;;11.20;99.90;;;;;;4994800;28;20750;-67
2022/09/20 05:56:05;;;;;;;11.23;1.67;;;11.20;99.90;;;;;;4994941;28;20054;-67
2022/09/20 05:59:21;;;;;;;8.40;1.57;;;11.30;99.90;;;;;;4995170;28;20278;-67
2022/09/20 06:02:20;;;;;;;8.33;1.80;;;11.20;99.90;;;;;;4934554;29;20338;-67
2022/09/20 06:05:13;;;;;;;8.67;1.60;;;11.20;99.90;;;;;;4934780;29;20435;-67
2022/09/20 06:07:55;;;;;;;7.73;1.53;;;11.30;99.90;;;;;;4993176;28;20622;-67
2022/09/20 06:10:38;;;;;;;7.33;1.63;;;11.30;99.90;;;;;;4993999;28;20297;-67
2022/09/20 06:13:19;;;;;;;9.23;1.93;;;11.30;99.90;;;;;;4995020;28;20336;-65
2022/09/20 06:16:03;;;;;;;7.10;1.40;;;11.30;99.90;;;;;;4994991;28;20317;-67
2022/09/20 06:18:35;;;;;;;5.40;1.27;;;11.30;99.90;;;;;;4995154;28;20387;-67
2022/09/20 06:21:40;;;;;;;8.13;1.40;;;11.30;99.90;;;;;;4994302;28;20734;-67
2022/09/20 06:24:43;;;;;;;6.10;1.50;;;11.40;99.90;;;;;;4994624;28;20887;-66
2022/09/20 06:27:23;;;;;;;10.37;1.47;;;11.60;99.90;;;;;;4971178;28;20293;-65
2022/09/20 06:29:56;;;;;;;12.50;1.60;;;11.70;99.90;;;;;;4995001;28;20274;-64
2022/09/20 06:32:21;;;;;;;8.50;1.70;;;11.90;99.90;;;;;;4994167;28;20292;-65
2022/09/20 06:34:48;;;;;;;10.20;1.77;;;12.00;99.90;;;;;;4993851;28;20364;-67
2022/09/20 06:43:18;;;;;;;8.30;1.90;;;12.50;99.90;;;;;;4993223;28;20389;-66
2022/09/20 06:45:44;;;;;;;7.70;1.77;;;12.70;99.90;;;;;;4994046;28;20281;-67
2022/09/20 06:48:12;;;;;;;5.40;1.10;;;12.90;99.90;;;;;;4992725;28;20385;-66
2022/09/20 06:50:44;;;;;;;8.30;1.83;;;13.30;99.90;;;;;;4993854;28;20055;-66
2022/09/20 06:53:16;;;;;;;6.40;1.40;;;13.80;99.90;;;;;;4993808;28;20285;-66
2022/09/20 06:55:43;;;;;;;7.97;1.40;;;15.30;99.90;;;;;;4994646;28;20293;-66
2022/09/20 06:58:10;;;;;;;9.77;1.47;;;15.80;99.90;;;;;;4993795;28;20734;-66
2022/09/20 07:00:38;;;;;;;7.00;1.60;;;;;;;;;;4993520;28;20769;-66
2022/09/20 07:03:05;;;;;;;10.97;1.90;;;;;;;;;;4993484;28;20856;-66
2022/09/20 07:05:31;;;;;;;7.10;1.83;;;;;;;;;;4992789;28;20046;-66
2022/09/20 07:07:58;;;;;;;6.80;1.93;;;;;;;;;;4994404;28;20050;-66
2022/09/20 07:10:26;;;;;;;8.00;1.90;;;16.60;99.90;;;;;;4992721;28;20073;-66
2022/09/20 07:12:55;;;;;;;8.63;1.60;;;;;;;;;;4993978;28;20152;-66
2022/09/20 07:15:22;;;;;;;10.97;1.60;;;;;;;;;;4993677;28;20427;-66
2022/09/20 07:17:49;;;;;;;10.63;1.73;;;;;;;;;;4993623;28;20085;-66
2022/09/20 07:20:16;;;;;;;9.60;1.80;;;15.80;99.90;;;;;;4992525;28;20046;-66
2022/09/20 07:22:41;;;;;;;8.13;1.80;;;15.60;99.90;;;;;;4993605;28;20133;-66
2022/09/20 07:25:08;;;;;;;7.53;1.80;;;15.40;99.90;;;;;;4993929;28;20322;-66
2022/09/20 07:27:33;;;;;;;9.17;2.37;;;15.20;99.90;;;;;;4993917;28;20559;-65
2022/09/20 07:30:01;;;;;;;8.33;1.77;;;15.20;99.90;;;;;;4994218;28;20169;-65
2022/09/20 07:32:27;;;;;;;7.90;1.90;;;15.00;99.90;;;;;;4993584;28;20133;-66
2022/09/20 07:34:52;;;;;;;11.07;1.60;;;15.10;99.90;;;;;;4993524;28;20503;-66
2022/09/20 07:37:18;;;;;;;7.67;1.47;;;15.10;99.90;;;;;;4992391;28;20048;-66
2022/09/20 07:39:45;;;;;;;11.13;1.80;;;15.20;99.90;;;;;;4993986;28;20399;-66
2022/09/20 07:42:11;;;;;;;11.03;1.70;;;15.10;99.90;;;;;;4994251;28;20105;-66
2022/09/20 07:44:39;;;;;;;7.60;1.30;;;15.00;99.90;;;;;;4993472;28;20046;-66
2022/09/20 07:47:05;;;;;;;8.27;1.60;;;15.00;99.90;;;;;;4994619;28;20047;-66
2022/09/20 07:49:31;;;;;;;9.70;1.30;;;15.00;99.90;;;;;;4997324;28;20478;-66
2022/09/20 07:51:57;;;;;;;8.63;1.60;;;15.00;99.90;;;;;;4997097;28;20054;-66
2022/09/20 07:54:23;;;;;;;10.23;1.60;;;15.00;99.90;;;;;;4996783;28;20513;-66
2022/09/20 07:56:49;;;;;;;8.40;1.57;;;15.20;99.90;;;;;;4996873;28;20132;-66
2022/09/20 07:59:15;;;;;;;9.37;1.90;;;15.40;99.90;;;;;;4997676;28;20392;-66
2022/09/20 08:01:41;;;;;;;6.97;1.40;;;15.40;99.90;;;;;;4996850;28;20050;-66
2022/09/20 08:04:08;;;;;;;8.23;2.20;;;15.50;99.90;;;;;;4996861;28;20387;-66
2022/09/20 08:06:39;;;;;;;12.97;2.23;;;15.60;99.90;;;;;;4996747;28;20038;-66
2022/09/20 08:09:06;;;;;;;5.87;1.60;;;15.70;99.90;;;;;;4996700;28;20149;-66
2022/09/20 08:11:32;;;;;;;11.07;1.57;;;15.70;99.90;;;;;;4997502;28;20050;-67
2022/09/20 08:13:59;;;;;;;6.50;1.80;;;15.70;99.90;;;;;;4996929;28;20188;-66
2022/09/20 08:16:26;;;;;;;13.67;2.73;;;15.70;99.90;;;;;;4996551;28;20057;-66
2022/09/20 08:18:58;;;;;;;8.93;1.80;;;15.80;99.90;;;;;;4997068;28;20054;-66
2022/09/20 08:21:25;;;;;;;9.97;1.60;;;15.70;99.90;;;;;;4996905;28;20057;-66
2022/09/20 08:23:51;;;;;;;6.70;1.50;;;15.70;99.90;;;;;;4996489;28;20117;-65
2022/09/20 08:26:20;;;;;;;9.77;1.60;;;15.70;99.90;;;;;;4995233;28;20050;-67
2022/09/20 08:28:51;;;;;;;8.20;1.77;;;15.70;99.90;;;;;;4995578;28;20062;-66
2022/09/20 08:31:18;;;;;;;7.53;1.60;;;15.70;99.90;;;;;;4996446;28;20058;-68
2022/09/20 08:33:47;;;;;;;6.47;1.50;;;15.70;99.90;;;;;;4996305;28;20042;-69
2022/09/20 08:36:23;;;;;;;9.30;1.53;;;15.90;99.90;;;;;;4996222;28;20137;-67
2022/09/20 08:38:49;;;;;;;10.90;1.60;;;16.10;99.90;;;;;;4996270;28;20057;-66
2022/09/20 08:41:15;;;;;;;14.50;1.40;;;16.20;99.90;;;;;;4996171;28;20050;-66
2022/09/20 08:43:49;;;;;;;7.80;1.47;;;16.20;99.90;;;;;;4996095;28;20068;-66
2022/09/20 08:46:17;;;;;;;9.27;1.90;;;15.90;99.90;;;;;;4996678;28;20105;-66
2022/09/20 08:48:45;;;;;;;6.13;1.60;;;16.10;99.90;;;;;;4995030;28;20046;-66
2022/09/20 08:51:15;;;;;;;6.87;1.40;;;15.90;99.90;;;;;;4995975;28;20054;-66
2022/09/20 08:53:48;;;;;;;10.03;2.13;;;15.70;99.90;;;;;;4995929;28;20125;-69
2022/09/20 08:56:15;;;;;;;6.63;1.17;;;15.50;99.90;;;;;;4995765;28;20038;-67
2022/09/20 08:58:41;;;;;;;11.37;2.10;;;15.40;99.90;;;;;;4994733;28;20057;-65
2022/09/20 09:01:13;;;;;;;8.80;1.70;;;15.40;99.90;;;;;;4995712;28;20054;-66
2022/09/20 09:03:38;;;;;;;9.33;1.83;;;15.50;99.90;;;;;;4996255;28;20089;-66
2022/09/20 09:06:04;;;;;;;5.60;1.47;;;15.50;99.90;;;;;;4995372;28;20085;-66
2022/09/20 09:08:35;;;;;;;8.03;1.53;;;15.60;99.90;;;;;;4995620;28;20046;-66
2022/09/20 09:11:08;;;;;;;5.63;1.40;;;15.60;99.90;;;;;;4995514;28;20129;-66
2022/09/20 09:13:45;;;;;;;6.33;1.30;;;15.70;99.90;;;;;;4996062;28;20051;-68
2022/09/20 09:16:16;;;;;;;3.50;1.20;;;15.70;99.90;;;;;;4995761;28;20050;-66
2022/09/20 09:18:44;;;;;;;5.80;1.20;;;15.80;99.90;;;;;;4996006;28;20129;-66
2022/09/20 09:21:23;;;;;;;6.87;1.57;;;15.80;99.90;;;;;;4995461;28;20059;-66
2022/09/20 09:24:15;;;;;;;5.10;1.27;;;15.90;99.90;;;;;;4995350;28;20054;-69
2022/09/20 09:26:45;;;;;;;6.30;1.50;;;16.00;99.90;;;;;;4987003;28;20065;-66
2022/09/20 09:29:17;;;;;;;7.47;1.70;;;16.10;99.90;;;;;;4995731;28;20085;-66
2022/09/20 09:31:44;;;;;;;7.00;1.90;;;16.10;99.90;;;;;;4995835;28;20181;-66
2022/09/20 09:34:39;;;;;;;5.83;1.83;;;16.10;99.90;;;;;;4995438;28;20075;-67
2022/09/20 09:37:20;;;;;;;8.15;1.48;;;16.00;99.90;;;;;;4995847;28;20077;-68
2022/09/20 09:39:45;;;;;;;8.03;1.60;;;15.90;99.90;;;;;;4994828;28;20426;-68
2022/09/20 09:42:24;;;;;;;7.93;1.60;;;15.90;99.90;;;;;;4995033;28;20056;-68
2022/09/20 09:44:50;;;;;;;8.80;2.23;;;15.90;99.90;;;;;;4995424;28;20096;-68
2022/09/20 09:47:30;;;;;;;12.10;1.43;;;15.90;99.90;;;;;;4995002;28;20046;-68
2022/09/20 09:49:58;;;;;;;10.30;2.27;;;15.90;99.90;;;;;;4994889;28;20053;-69
2022/09/20 09:52:26;;;;;;;11.80;2.00;;;15.90;99.90;;;;;;4993625;28;20051;-68
2022/09/20 09:54:58;;;;;;;7.07;1.50;;;15.90;99.90;;;;;;4994723;28;20123;-68
2022/09/20 09:57:33;;;;;;;8.43;1.57;;;15.90;99.90;;;;;;4994702;28;20046;-68
2022/09/20 10:00:17;;;;;;;6.43;1.45;;;15.90;99.90;;;;;;4994659;28;20043;-68
2022/09/20 10:03:08;;;;;;;7.10;1.37;;;16.00;99.90;;;;;;4995242;28;20054;-69
2022/09/20 10:05:40;;;;;;;6.17;1.70;;;16.20;99.90;;;;;;4994230;28;20054;-68
2022/09/20 10:08:26;;;;;;;6.73;1.50;;;16.30;99.90;;;;;;4995119;28;20078;-68
2022/09/20 10:11:34;;;;;;;7.00;1.60;;;16.50;99.90;;;;;;4977812;28;20100;-68
2022/09/20 10:14:24;;;;;;;12.00;2.47;;;16.60;99.90;;;;;;4983346;28;20054;-67
2022/09/20 10:17:27;;;;;;;8.33;1.73;;;16.60;99.90;;;;;;4993979;28;20153;-67
2022/09/20 10:19:59;;;;;;;7.83;1.50;;;16.50;99.90;;;;;;4994499;28;20046;-67
2022/09/20 10:22:45;;;;;;;8.63;1.50;;;16.50;99.90;;;;;;4994306;28;20400;-67
2022/09/20 10:25:32;;;;;;;7.90;1.57;;;16.40;99.80;;;;;;4994958;28;20050;-66
2022/09/20 10:28:07;;;;;;;9.93;2.00;;;16.40;99.90;;;;;;4994019;28;20051;-67
2022/09/20 10:31:10;;;;;;;9.07;1.60;;;16.30;99.90;;;;;;4994886;28;20058;-66
2022/09/20 10:33:58;;;;;;;10.00;2.23;;;16.40;99.90;;;;;;4994111;28;20047;-66
2022/09/20 10:36:54;;;;;;;8.47;1.80;;;16.40;99.90;;;;;;4994284;28;20054;-66
2022/09/20 10:39:33;;;;;;;7.93;1.30;;;16.40;99.90;;;;;;4994014;28;20137;-66
2022/09/20 10:45:12;;;;;;;8.63;1.93;;;16.40;99.90;;;;;;4993900;28;20050;-66
2022/09/20 10:48:07;;;;;;;10.63;1.80;;;16.40;99.90;;;;;;4993881;28;20169;-66
2022/09/20 10:50:38;;;;;;;8.27;1.80;;;16.30;99.90;;;;;;4993658;28;20087;-67
2022/09/20 10:53:04;;;;;;;6.07;1.43;;;16.30;99.90;;;;;;4993876;28;20050;-68
2022/09/20 10:55:39;;;;;;;6.53;1.70;;;16.20;99.90;;;;;;4993755;28;20061;-68
2022/09/20 10:58:07;;;;;;;8.32;1.65;;;16.10;99.90;;;;;;4994211;28;20141;-66
2022/09/20 11:00:45;;;;;;;10.03;1.90;;;16.20;99.90;;;;;;4992773;28;20046;-67
2022/09/20 11:03:16;;;;;;;8.30;1.77;;;16.20;99.90;;;;;;4993743;28;20054;-67
2022/09/20 11:06:03;;;;;;;10.50;2.00;;;16.30;99.90;;;;;;4993739;28;20046;-67
2022/09/20 11:08:34;;;;;;;8.90;1.77;;;16.40;99.90;;;;;;4993653;28;20050;-64
2022/09/20 11:11:21;;;;;;;9.60;1.47;;;16.50;99.90;;;;;;4993810;28;20050;-66
2022/09/20 11:14:00;;;;;;;7.73;1.33;;;16.60;99.90;;;;;;4993637;28;20112;-66
2022/09/20 11:16:55;;;;;;;6.37;1.60;;;16.60;99.90;;;;;;4992555;28;20502;-66
2022/09/20 11:20:02;;;;;;;7.13;1.50;;;16.60;99.00;;;;;;4992400;28;20181;-67
2022/09/20 11:22:32;;;;;;;8.07;1.60;;;16.50;93.90;;;;;;4994387;28;20116;-68
2022/09/20 11:25:14;;;;;;;7.73;1.50;;;16.50;97.90;;;;;;4996631;28;20475;-69
2022/09/20 11:27:50;;;;;;;6.93;1.30;;;16.50;98.80;;;;;;4998343;28;20055;-65
2022/09/20 11:30:19;;;;;;;6.40;1.80;;;16.40;98.20;;;;;;4997561;28;20054;-65
2022/09/20 11:33:00;;;;;;;11.67;1.60;;;16.30;99.10;;;;;;4997452;28;20053;-66
2022/09/20 11:35:32;;;;;;;7.17;1.87;;;16.20;97.70;;;;;;4996234;28;20053;-68
2022/09/20 11:38:14;;;;;;;9.40;1.50;;;16.20;98.30;;;;;;4996082;28;20054;-66
2022/09/20 11:40:48;;;;;;;8.53;1.53;;;16.20;96.90;;;;;;4997354;28;20049;-65
2022/09/20 11:43:17;;;;;;;5.75;1.33;;;16.30;97.70;;;;;;4997537;28;20072;-65
2022/09/20 11:45:46;;;;;;;8.87;1.97;;;16.40;95.00;;;;;;4997192;28;20046;-65
2022/09/20 11:48:27;;;;;;;7.33;1.53;;;16.40;95.80;;;;;;4997130;28;20089;-67
2022/09/20 11:51:21;;;;;;;8.37;1.40;;;16.30;95.00;;;;;;4996549;28;20046;-65
2022/09/20 11:53:47;;;;;;;9.80;1.60;;;16.10;94.60;;;;;;4997160;28;20062;-65
2022/09/20 11:56:23;;;;;;;7.17;1.53;;;16.10;96.60;;;;;;4996985;28;20054;-65
2022/09/20 11:58:51;;;;;;;5.17;1.20;;;16.20;97.20;;;;;;4996714;28;20540;-65
2022/09/20 12:01:26;;;;;;;6.80;1.20;;;16.40;98.20;;;;;;4996968;28;20054;-65
2022/09/20 12:03:55;;;;;;;6.50;1.48;;;16.40;96.60;;;;;;4996883;28;20128;-64
2022/09/20 12:06:37;;;;;;;9.10;1.30;;;16.50;94.90;;;;;;4996469;28;20498;-63
2022/09/20 12:09:25;;;;;;;6.00;1.07;;;16.50;96.30;;;;;;4997117;28;20050;-64
2022/09/20 12:11:51;;;;;;;11.03;1.20;;;16.60;95.60;;;;;;4986060;28;20050;-63
2022/09/20 12:14:31;;;;;;;4.03;1.10;;;16.50;94.50;;;;;;4996730;28;20096;-64
2022/09/20 12:16:57;;;;;;;8.03;1.60;;;16.60;92.90;;;;;;4996856;28;20146;-65
2022/09/20 12:19:32;;;;;;;6.60;1.40;;;16.50;96.00;;;;;;4996273;28;20488;-65
2022/09/20 12:21:57;;;;;;;7.50;1.50;;;16.50;99.20;;;;;;4997090;28;20136;-65
2022/09/20 12:24:32;;;;;;;7.57;1.40;;;16.60;99.60;;;;;;4996553;28;20138;-66
2022/09/20 12:26:59;;;;;;;;;;;16.80;99.90;;;;;;4997702;28;20038;-65
2022/09/20 12:29:32;;;;;;;7.97;1.70;;;16.80;99.90;;;;;;4996004;28;20008;-65
2022/09/20 12:32:22;;;;;;;8.10;1.30;;;16.80;99.90;;;;;;4996708;28;20399;-68
2022/09/20 12:34:48;;;;;;;7.20;1.50;;;16.70;99.90;;;;;;4996198;28;20509;-64
2022/09/20 12:37:14;;;;;;;9.20;1.40;;;16.70;99.90;;;;;;4996298;28;20133;-65
2022/09/20 12:39:53;;;;;;;15.17;2.13;;;16.60;99.90;;;;;;4996206;28;20061;-64
2022/09/20 12:42:27;;;;;;;6.63;1.50;;;16.70;99.90;;;;;;4996257;28;20058;-65
2022/09/20 12:45:06;;;;;;;8.80;1.30;;;16.60;99.90;;;;;;4996250;28;20058;-64
2022/09/20 12:47:34;;;;;;;9.43;1.50;;;16.60;99.90;;;;;;4996079;28;20050;-64
2022/09/20 12:52:55;;;;;;;5.77;1.40;;;16.50;99.90;;;;;;4996634;28;20105;-64
2022/09/20 12:55:24;;;;;;;;;;;16.40;99.90;;;;;;4996749;28;20467;-63
2022/09/20 12:58:15;;;;;;;5.57;1.40;;;16.40;99.90;;;;;;4995578;28;20382;-63
2022/09/20 13:00:44;;;;;;;6.93;1.80;;;16.40;99.90;;;;;;4967751;28;20180;-63
2022/09/20 13:03:25;;;;;;;7.50;1.50;;;16.50;99.90;;;;;;4996272;28;20050;-64
2022/09/20 13:06:21;;;;;;;5.87;1.30;;;16.70;99.90;;;;;;4995778;28;20058;-63
2022/09/20 13:08:59;;;;;;;;;;;16.90;99.90;;;;;;4996057;28;20058;-63
2022/09/20 13:11:47;;;;;;;7.10;1.27;;;17.10;99.90;;;;;;4995657;28;19921;-63
2022/09/20 13:14:24;;;;;;;13.73;1.93;;;17.10;99.90;;;;;;4995463;28;20509;-63
2022/09/20 13:17:01;;;;;;;9.47;1.70;;;17.00;98.50;;;;;;4995415;28;20042;-63
2022/09/20 13:19:40;;;;;;;7.70;1.37;;;17.00;98.20;;;;;;4996261;28;20108;-63
2022/09/20 13:22:16;;;;;;;8.23;1.53;;;16.80;97.60;;;;;;4995454;28;20053;-64
2022/09/20 13:24:50;;;;;;;5.57;1.77;;;16.70;98.20;;;;;;4994696;28;20390;-63
2022/09/20 13:27:21;;;;;;;5.75;1.20;;;16.60;95.60;;;;;;4996099;28;20074;-63
2022/09/20 13:29:48;;;;;;;7.63;1.27;;;16.60;95.80;;;;;;4995141;28;20487;-67
2022/09/20 13:32:14;;;;;;;5.23;1.03;;;16.50;95.80;;;;;;4995235;28;20058;-65
2022/09/20 13:34:44;;;;;;;6.50;1.20;;;16.50;95.00;;;;;;4995230;28;20061;-65
2022/09/20 13:37:22;;;;;;;6.70;1.57;;;16.40;95.10;;;;;;4995034;28;20050;-65
2022/09/20 13:39:53;;;;;;;7.73;1.47;;;16.50;92.50;;;;;;4995614;28;20062;-65
2022/09/20 13:42:20;;;;;;;5.17;1.30;;;16.40;93.40;;;;;;4994737;28;20475;-65
2022/09/20 13:44:47;;;;;;;4.70;1.20;;;16.50;93.60;;;;;;4994776;28;20475;-65
2022/09/20 13:47:27;;;;;;;5.53;1.77;;;16.40;93.10;;;;;;4994958;28;20043;-65
2022/09/20 13:50:14;;;;;;;6.40;1.37;;;16.40;92.80;;;;;;4995776;28;20050;-65
2022/09/20 13:53:00;;;;;;;5.97;1.53;;;16.50;93.90;;;;;;4995256;28;20100;-66
2022/09/20 13:55:32;;;;;;;7.20;1.23;;;16.50;95.30;;;;;;4994893;28;20050;-65
2022/09/20 13:58:21;;;;;;;5.67;1.37;;;16.40;95.50;;;;;;4994695;28;20493;-65
2022/09/20 14:00:53;;;;;;;7.93;1.60;;;16.30;95.40;;;;;;4995094;28;20545;-65